createdAt,value
2023-01-29T00:00:25.384Z,90.39
2023-01-29T00:02:52.185Z,90.45
2023-01-29T00:05:27.984Z,90.67
2023-01-29T00:07:56.889Z,90.64
2023-01-29T00:10:25.458Z,91.03
2023-01-29T00:12:52.748Z,90.58
2023-01-29T00:15:19.554Z,91.63
2023-01-29T00:17:46.029Z,90.60
2023-01-29T00:20:12.897Z,91.58
2023-01-29T00:22:39.436Z,91.56
2023-01-29T00:25:06.453Z,92.10
2023-01-29T00:27:32.946Z,91.81
2023-01-29T00:30:19.326Z,91.21
2023-01-29T00:32:46.151Z,91.92
2023-01-29T00:35:12.683Z,91.86
2023-01-29T00:37:39.187Z,91.32
2023-01-29T00:40:06.294Z,91.69
2023-01-29T00:42:52.064Z,92.17
2023-01-29T00:45:18.674Z,91.69
2023-01-29T00:47:45.204Z,91.50
2023-01-29T00:50:12.457Z,91.38
2023-01-29T00:52:41.085Z,92.26
2023-01-29T00:55:09.700Z,91.45
2023-01-29T00:57:37.127Z,92.33
2023-01-29T01:00:06.182Z,92.24
2023-01-29T01:02:51.407Z,92.33
2023-01-29T01:05:18.593Z,91.69
2023-01-29T01:07:49.922Z,91.54
2023-01-29T01:10:22.795Z,91.33
2023-01-29T01:12:53.522Z,92.56
2023-01-29T01:15:21.933Z,91.80
2023-01-29T01:17:51.588Z,92.76
2023-01-29T01:20:18.556Z,91.65
2023-01-29T01:22:45.278Z,92.38
2023-01-29T01:25:11.860Z,92.05
2023-01-29T01:27:41.201Z,92.16
2023-01-29T01:30:11.054Z,92.17
2023-01-29T01:32:37.760Z,92.29
2023-01-29T01:35:04.573Z,92.42
2023-01-29T01:37:31.087Z,92.37
2023-01-29T01:39:58.632Z,92.48
2023-01-29T01:42:30.436Z,92.55
2023-01-29T01:45:06.347Z,92.54
2023-01-29T01:47:47.176Z,92.08
2023-01-29T01:50:25.839Z,92.21
2023-01-29T01:52:59.871Z,92.42
2023-01-29T01:55:30.107Z,92.27
2023-01-29T01:58:22.935Z,92.01
2023-01-29T02:00:50.154Z,91.68
2023-01-29T02:03:37.946Z,91.91
2023-01-29T02:06:23.333Z,91.91
2023-01-29T02:09:13.951Z,92.55
2023-01-29T02:11:40.873Z,91.83
2023-01-29T02:14:07.780Z,92.15
2023-01-29T02:16:36.040Z,92.65
2023-01-29T02:19:07.108Z,92.72
2023-01-29T02:22:05.016Z,92.60
2023-01-29T02:24:50.195Z,92.07
2023-01-29T02:27:26.071Z,92.12
2023-01-29T02:30:07.340Z,92.34
2023-01-29T02:32:58.590Z,92.26
2023-01-29T02:35:42.555Z,91.93
2023-01-29T02:38:27.726Z,91.65
2023-01-29T02:40:59.747Z,91.82
2023-01-29T02:43:42.079Z,91.25
2023-01-29T02:46:29.147Z,91.05
2023-01-29T02:49:00.289Z,91.96
2023-01-29T02:51:55.460Z,91.66
2023-01-29T02:54:29.167Z,91.30
2023-01-29T02:57:17.669Z,91.46
2023-01-29T02:59:58.575Z,91.68
2023-01-29T03:02:35.799Z,91.42
2023-01-29T03:05:10.383Z,90.98
2023-01-29T03:07:42.456Z,91.44
2023-01-29T03:10:18.327Z,91.38
2023-01-29T03:12:51.034Z,91.33
2023-01-29T03:15:25.161Z,91.31
2023-01-29T03:18:01.333Z,91.75
2023-01-29T03:20:33.561Z,91.90
2023-01-29T03:23:07.033Z,92.08
2023-01-29T03:25:54.607Z,92.42
2023-01-29T03:28:41.947Z,91.73
2023-01-29T03:31:30.831Z,92.53
2023-01-29T03:34:24.022Z,92.22
2023-01-29T03:37:03.668Z,92.38
2023-01-29T03:39:30.727Z,92.62
2023-01-29T03:42:15.712Z,92.41
2023-01-29T03:44:51.056Z,93.22
2023-01-29T03:47:32.672Z,92.32
2023-01-29T03:50:03.690Z,93.08
2023-01-29T03:52:51.655Z,93.38
2023-01-29T03:55:22.873Z,92.83
2023-01-29T03:58:00.911Z,92.94
2023-01-29T04:00:32.002Z,92.83
2023-01-29T04:03:11.442Z,92.60
2023-01-29T04:06:09.929Z,93.25
2023-01-29T04:08:46.467Z,92.98
2023-01-29T04:11:16.437Z,92.51
2023-01-29T04:13:43.663Z,92.61
2023-01-29T04:16:16.860Z,93.36
2023-01-29T04:18:48.401Z,92.93
2023-01-29T04:21:15.867Z,93.08
2023-01-29T04:23:42.371Z,92.45
2023-01-29T04:26:21.871Z,92.46
2023-01-29T04:28:54.193Z,92.52
2023-01-29T04:31:26.786Z,92.76
2023-01-29T04:34:01.483Z,92.40
2023-01-29T04:36:46.451Z,92.18
2023-01-29T04:39:25.494Z,92.83
2023-01-29T04:42:04.076Z,92.53
2023-01-29T04:44:44.788Z,92.59
2023-01-29T04:47:30.911Z,92.27
2023-01-29T04:50:19.441Z,91.79
2023-01-29T04:53:04.563Z,91.59
2023-01-29T04:55:43.539Z,92.60
2023-01-29T04:58:37.191Z,92.44
2023-01-29T05:01:06.412Z,91.95
2023-01-29T05:03:35.251Z,91.55
2023-01-29T05:06:02.985Z,91.91
2023-01-29T05:08:31.925Z,91.13
2023-01-29T05:11:00.185Z,91.17
2023-01-29T05:13:31.150Z,91.51
2023-01-29T05:16:08.410Z,91.79
2023-01-29T05:18:35.930Z,90.98
2023-01-29T05:21:06.488Z,90.78
2023-01-29T05:23:32.954Z,90.95
2023-01-29T05:25:59.571Z,91.46
2023-01-29T05:28:26.062Z,91.10
2023-01-29T05:30:55.511Z,91.38
2023-01-29T05:33:28.178Z,91.54
2023-01-29T05:35:55.824Z,90.83
2023-01-29T05:38:23.331Z,90.83
2023-01-29T05:40:50.136Z,90.81
2023-01-29T05:43:22.841Z,90.75
2023-01-29T05:46:00.372Z,91.32
2023-01-29T05:48:28.926Z,90.85
2023-01-29T05:51:00.579Z,91.02
2023-01-29T05:53:28.744Z,90.75
2023-01-29T05:55:57.152Z,90.91
2023-01-29T05:58:23.755Z,89.92
2023-01-29T06:00:50.256Z,90.95
2023-01-29T06:03:17.013Z,90.73
2023-01-29T06:05:43.498Z,90.38
2023-01-29T06:08:10.030Z,90.05
2023-01-29T06:10:36.564Z,90.28
2023-01-29T06:13:03.336Z,89.88
2023-01-29T06:15:29.828Z,89.62
2023-01-29T06:17:57.203Z,90.22
2023-01-29T06:20:24.644Z,90.35
2023-01-29T06:22:51.166Z,90.56
2023-01-29T06:25:17.580Z,90.03
2023-01-29T06:27:44.219Z,90.16
2023-01-29T06:30:11.379Z,89.88
2023-01-29T06:32:37.871Z,90.44
2023-01-29T06:35:04.708Z,90.51
2023-01-29T06:37:31.174Z,89.77
2023-01-29T06:39:57.669Z,89.40
2023-01-29T06:42:27.834Z,89.36
2023-01-29T06:44:57.456Z,89.54
2023-01-29T06:47:24.653Z,89.01
2023-01-29T06:49:51.126Z,89.73
2023-01-29T06:52:17.571Z,89.94
2023-01-29T06:54:44.063Z,89.67
2023-01-29T06:57:10.629Z,88.81
2023-01-29T06:59:37.058Z,88.69
2023-01-29T07:02:04.105Z,89.31
2023-01-29T07:04:30.757Z,89.29
2023-01-29T07:06:59.396Z,89.10
2023-01-29T07:09:25.849Z,88.29
2023-01-29T07:11:52.303Z,88.79
2023-01-29T07:14:18.728Z,88.27
2023-01-29T07:16:45.242Z,88.65
2023-01-29T07:19:11.771Z,89.04
2023-01-29T07:21:38.222Z,88.41
2023-01-29T07:24:04.895Z,88.64
2023-01-29T07:26:31.333Z,88.05
2023-01-29T07:28:57.751Z,88.15
2023-01-29T07:31:24.404Z,89.20
2023-01-29T07:33:50.914Z,88.36
2023-01-29T07:36:17.453Z,89.15
2023-01-29T07:38:43.947Z,88.71
2023-01-29T07:41:11.731Z,88.74
2023-01-29T07:43:38.182Z,88.77
2023-01-29T07:46:05.218Z,88.38
2023-01-29T07:48:31.815Z,88.81
2023-01-29T07:50:58.919Z,88.72
2023-01-29T07:53:27.836Z,88.28
2023-01-29T07:55:54.279Z,88.68
2023-01-29T07:58:20.844Z,88.48
2023-01-29T08:00:47.289Z,88.46
2023-01-29T08:03:17.426Z,87.81
2023-01-29T08:05:44.880Z,88.47
2023-01-29T08:08:11.496Z,88.41
2023-01-29T08:10:39.457Z,87.86
2023-01-29T08:13:06.632Z,87.95
2023-01-29T08:15:33.473Z,87.42
2023-01-29T08:18:01.927Z,87.55
2023-01-29T08:20:28.890Z,87.42
2023-01-29T08:23:15.649Z,87.03
2023-01-29T08:25:42.654Z,87.84
2023-01-29T08:28:09.776Z,87.86
2023-01-29T08:30:36.232Z,87.13
2023-01-29T08:33:03.751Z,87.29
2023-01-29T08:35:30.309Z,87.08
2023-01-29T08:37:59.475Z,86.30
2023-01-29T08:40:27.648Z,86.99
2023-01-29T08:43:02.515Z,87.40
2023-01-29T08:45:31.153Z,86.33
2023-01-29T08:47:57.645Z,86.88
2023-01-29T08:50:24.337Z,87.39
2023-01-29T08:52:51.048Z,87.26
2023-01-29T08:55:41.814Z,86.74
2023-01-29T08:58:10.773Z,85.92
2023-01-29T09:00:37.277Z,86.42
2023-01-29T09:03:03.932Z,86.78
2023-01-29T09:05:30.544Z,86.11
2023-01-29T09:07:58.039Z,85.98
2023-01-29T09:10:24.921Z,85.81
2023-01-29T09:12:51.428Z,85.02
2023-01-29T09:15:18.315Z,85.68
2023-01-29T09:17:45.180Z,85.27
2023-01-29T09:20:11.831Z,84.69
2023-01-29T09:22:38.294Z,84.39
2023-01-29T09:25:05.282Z,84.87
2023-01-29T09:27:31.916Z,85.10
2023-01-29T09:29:58.413Z,84.97
2023-01-29T09:32:51.999Z,84.46
2023-01-29T09:35:11.346Z,84.51
2023-01-29T09:37:37.813Z,84.73
2023-01-29T09:40:04.989Z,84.40
2023-01-29T09:42:44.061Z,85.11
2023-01-29T09:45:16.224Z,84.19
2023-01-29T09:47:44.253Z,84.22
2023-01-29T09:50:19.234Z,83.60
2023-01-29T09:52:53.212Z,83.82
2023-01-29T09:55:32.560Z,84.46
2023-01-29T09:58:25.466Z,83.50
2023-01-29T10:01:08.187Z,83.37
2023-01-29T10:03:53.183Z,83.73
2023-01-29T10:06:47.757Z,83.51
2023-01-29T10:09:20.935Z,83.63
2023-01-29T10:12:02.978Z,82.84
2023-01-29T10:14:56.030Z,83.50
2023-01-29T10:17:50.443Z,83.44
2023-01-29T10:20:47.659Z,83.67
2023-01-29T10:23:34.613Z,83.45
2023-01-29T10:26:01.340Z,83.89
2023-01-29T10:28:48.344Z,83.19
2023-01-29T10:31:39.040Z,84.28
2023-01-29T10:34:24.750Z,83.83
2023-01-29T10:36:51.232Z,84.05
2023-01-29T10:39:20.608Z,83.96
2023-01-29T10:42:05.479Z,83.27
2023-01-29T10:44:39.525Z,83.79
2023-01-29T10:47:21.285Z,84.19
2023-01-29T10:49:59.913Z,83.39
2023-01-29T10:53:03.652Z,83.30
2023-01-29T10:55:47.976Z,83.43
2023-01-29T10:58:22.170Z,82.83
2023-01-29T11:00:49.687Z,83.19
2023-01-29T11:03:28.068Z,83.03
2023-01-29T11:06:11.592Z,83.12
2023-01-29T11:09:25.667Z,83.14
2023-01-29T11:12:01.222Z,83.32
2023-01-29T11:14:45.611Z,82.84
2023-01-29T11:17:17.285Z,82.45
2023-01-29T11:19:46.632Z,82.91
2023-01-29T11:22:20.285Z,83.01
2023-01-29T11:25:07.657Z,82.54
2023-01-29T11:27:43.801Z,82.14
2023-01-29T11:30:31.893Z,83.40
2023-01-29T11:33:10.465Z,83.08
2023-01-29T11:35:37.078Z,82.79
2023-01-29T11:38:09.536Z,82.76
2023-01-29T11:40:39.769Z,83.00
2023-01-29T11:43:13.623Z,83.52
2023-01-29T11:45:40.668Z,83.01
2023-01-29T11:48:15.666Z,83.45
2023-01-29T11:50:42.905Z,82.68
2023-01-29T11:53:34.502Z,83.51
2023-01-29T11:56:04.186Z,83.21
2023-01-29T11:58:34.507Z,84.06
2023-01-29T12:01:01.532Z,84.12
2023-01-29T12:03:36.687Z,83.51
2023-01-29T12:06:07.349Z,84.39
2023-01-29T12:08:38.849Z,84.80
2023-01-29T12:11:33.265Z,84.88
2023-01-29T12:14:02.120Z,84.78
2023-01-29T12:16:52.904Z,84.75
2023-01-29T12:19:45.930Z,84.85
2023-01-29T12:22:18.639Z,85.37
2023-01-29T12:24:53.857Z,85.04
2023-01-29T12:27:46.764Z,85.48
2023-01-29T12:30:23.374Z,85.56
2023-01-29T12:33:31.836Z,85.14
2023-01-29T12:36:31.529Z,85.69
2023-01-29T12:38:59.257Z,85.07
2023-01-29T12:41:40.337Z,85.60
2023-01-29T12:44:45.162Z,84.99
2023-01-29T12:47:31.289Z,85.96
2023-01-29T12:50:03.483Z,85.56
2023-01-29T12:52:52.206Z,85.76
2023-01-29T12:55:47.912Z,85.59
2023-01-29T12:58:20.041Z,85.17
2023-01-29T13:00:51.041Z,85.54
2023-01-29T13:03:17.764Z,86.20
2023-01-29T13:05:58.008Z,85.99
2023-01-29T13:08:32.484Z,85.49
2023-01-29T13:11:02.860Z,86.08
2023-01-29T13:13:54.002Z,86.40
2023-01-29T13:16:25.106Z,86.41
2023-01-29T13:19:05.899Z,86.47
2023-01-29T13:21:40.726Z,86.27
2023-01-29T13:24:23.038Z,86.19
2023-01-29T13:26:49.946Z,86.48
2023-01-29T13:29:25.393Z,85.91
2023-01-29T13:32:04.735Z,86.14
2023-01-29T13:34:43.959Z,85.49
2023-01-29T13:37:28.202Z,85.50
2023-01-29T13:39:56.296Z,86.36
2023-01-29T13:42:49.032Z,85.76
2023-01-29T13:45:25.239Z,85.62
2023-01-29T13:50:51.633Z,85.51
2023-01-29T13:53:40.364Z,85.45
2023-01-29T13:56:34.613Z,85.06
2023-01-29T13:59:02.284Z,85.59
2023-01-29T14:01:46.887Z,85.82
2023-01-29T14:04:19.462Z,85.42
2023-01-29T14:06:48.758Z,85.77
2023-01-29T14:10:20.082Z,85.25
2023-01-29T14:12:49.052Z,85.37
2023-01-29T14:15:25.031Z,85.54
2023-01-29T14:18:19.553Z,85.94
2023-01-29T14:21:23.331Z,86.49
2023-01-29T14:23:52.457Z,86.49
2023-01-29T14:26:43.650Z,85.65
2023-01-29T14:29:18.741Z,86.15
2023-01-29T14:32:06.418Z,86.37
2023-01-29T14:34:34.486Z,86.59
2023-01-29T14:37:21.872Z,86.69
2023-01-29T14:39:51.039Z,86.51
2023-01-29T14:42:40.084Z,86.44
2023-01-29T14:45:30.816Z,85.97
2023-01-29T14:48:15.715Z,87.02
2023-01-29T14:50:47.673Z,86.59
2023-01-29T14:53:36.387Z,86.67
2023-01-29T14:56:15.150Z,86.89
2023-01-29T14:58:56.285Z,86.70
2023-01-29T15:01:35.100Z,86.67
2023-01-29T15:04:17.984Z,87.00
2023-01-29T15:06:48.845Z,86.81
2023-01-29T15:09:36.340Z,86.82
2023-01-29T15:12:21.548Z,86.55
2023-01-29T15:14:52.291Z,86.76
2023-01-29T15:17:25.148Z,86.80
2023-01-29T15:19:53.756Z,86.30
2023-01-29T15:22:22.107Z,86.98
2023-01-29T15:25:04.325Z,86.49
2023-01-29T15:27:31.144Z,86.46
2023-01-29T15:30:05.997Z,86.67
2023-01-29T15:32:36.789Z,87.05
2023-01-29T15:35:43.813Z,87.40
2023-01-29T15:38:22.039Z,87.21
2023-01-29T15:40:57.391Z,87.84
2023-01-29T15:43:28.164Z,87.65
2023-01-29T15:45:59.388Z,87.77
2023-01-29T15:48:36.241Z,87.37
2023-01-29T15:51:07.221Z,88.08
2023-01-29T15:53:41.137Z,88.16
2023-01-29T15:56:12.952Z,88.51
2023-01-29T15:58:40.263Z,87.53
2023-01-29T16:01:07.092Z,88.37
2023-01-29T16:03:36.105Z,88.33
2023-01-29T16:06:02.969Z,88.57
2023-01-29T16:08:30.055Z,88.84
2023-01-29T16:10:59.490Z,88.91
2023-01-29T16:13:29.185Z,88.87
2023-01-29T16:16:01.607Z,89.15
2023-01-29T16:18:38.297Z,90.28
2023-01-29T16:21:15.626Z,90.60
2023-01-29T16:23:45.764Z,91.25
2023-01-29T16:26:17.862Z,92.05
2023-01-29T16:28:46.052Z,92.47
2023-01-29T16:31:20.508Z,92.19
2023-01-29T16:33:47.208Z,92.05
2023-01-29T16:36:20.411Z,92.39
2023-01-29T16:39:02.879Z,92.09
2023-01-29T16:41:37.481Z,93.16
2023-01-29T16:44:31.952Z,93.84
2023-01-29T16:47:10.935Z,94.61
2023-01-29T16:49:37.376Z,95.01
2023-01-29T16:52:24.309Z,94.62
2023-01-29T16:54:51.393Z,95.01
2023-01-29T16:57:27.700Z,95.20
2023-01-29T16:59:57.157Z,95.33
2023-01-29T17:02:33.348Z,95.00
2023-01-29T17:05:08.020Z,95.82
2023-01-29T17:07:36.596Z,96.65
2023-01-29T17:10:05.432Z,96.19
2023-01-29T17:12:33.543Z,96.18
2023-01-29T17:15:03.924Z,96.15
2023-01-29T17:17:36.044Z,96.56
2023-01-29T17:20:16.502Z,96.56
2023-01-29T17:22:44.650Z,96.40
2023-01-29T17:25:15.969Z,95.74
2023-01-29T17:27:45.357Z,95.97
2023-01-29T17:30:20.474Z,95.15
2023-01-29T17:32:47.414Z,95.25
2023-01-29T17:35:16.808Z,94.88
2023-01-29T17:37:44.278Z,95.52
2023-01-29T17:40:39.423Z,94.82
2023-01-29T17:43:06.908Z,94.61
2023-01-29T17:45:33.907Z,94.53
2023-01-29T17:48:00.406Z,94.41
2023-01-29T17:50:29.787Z,93.63
2023-01-29T17:52:56.244Z,93.85
2023-01-29T17:55:22.942Z,93.29
2023-01-29T17:57:49.693Z,93.95
2023-01-29T18:00:19.705Z,93.38
2023-01-29T18:02:46.699Z,93.11
2023-01-29T18:05:14.248Z,93.55
2023-01-29T18:07:43.384Z,93.19
2023-01-29T18:10:18.898Z,92.52
2023-01-29T18:12:45.779Z,92.79
2023-01-29T18:15:12.789Z,93.09
2023-01-29T18:17:40.385Z,93.13
2023-01-29T18:20:20.683Z,92.99
2023-01-29T18:22:47.496Z,92.66
2023-01-29T18:25:14.605Z,92.78
2023-01-29T18:27:41.344Z,93.12
2023-01-29T18:30:11.020Z,93.00
2023-01-29T18:32:37.613Z,93.27
2023-01-29T18:35:06.110Z,92.91
2023-01-29T18:37:33.208Z,93.69
2023-01-29T18:39:59.601Z,93.05
2023-01-29T18:42:26.075Z,92.97
2023-01-29T18:44:52.664Z,93.95
2023-01-29T18:47:19.411Z,93.42
2023-01-29T18:49:46.028Z,93.57
2023-01-29T18:52:12.537Z,93.16
2023-01-29T18:54:38.914Z,93.44
2023-01-29T18:57:14.511Z,93.01
2023-01-29T18:59:51.821Z,93.37
2023-01-29T19:02:19.405Z,94.03
2023-01-29T19:04:46.346Z,94.10
2023-01-29T19:07:14.784Z,93.88
2023-01-29T19:09:42.106Z,94.23
2023-01-29T19:12:08.628Z,94.24
2023-01-29T19:14:35.105Z,93.99
2023-01-29T19:17:01.659Z,93.72
2023-01-29T19:19:29.811Z,93.94
2023-01-29T19:21:56.388Z,93.81
2023-01-29T19:24:23.187Z,94.42
2023-01-29T19:26:50.590Z,93.82
2023-01-29T19:29:17.634Z,94.04
2023-01-29T19:31:44.186Z,94.05
2023-01-29T19:34:10.699Z,94.61
2023-01-29T19:36:37.323Z,94.61
2023-01-29T19:39:04.175Z,95.08
2023-01-29T19:41:30.783Z,94.21
2023-01-29T19:43:57.194Z,94.47
2023-01-29T19:46:23.691Z,94.30
2023-01-29T19:48:50.529Z,94.45
2023-01-29T19:51:17.092Z,94.96
2023-01-29T19:53:46.217Z,95.06
2023-01-29T19:56:15.575Z,94.83
2023-01-29T19:58:42.610Z,95.63
2023-01-29T20:01:18.264Z,94.66
2023-01-29T20:03:46.555Z,95.30
2023-01-29T20:06:15.370Z,94.85
2023-01-29T20:08:42.313Z,95.37
2023-01-29T20:11:09.810Z,95.55
2023-01-29T20:13:36.227Z,95.40
2023-01-29T20:16:03.864Z,95.54
2023-01-29T20:18:30.467Z,95.41
2023-01-29T20:20:57.086Z,96.14
2023-01-29T20:23:36.741Z,95.46
2023-01-29T20:26:05.222Z,96.02
2023-01-29T20:28:31.792Z,95.83
2023-01-29T20:30:59.020Z,95.59
2023-01-29T20:33:26.469Z,95.97
2023-01-29T20:36:04.811Z,96.60
2023-01-29T20:38:31.778Z,96.13
2023-01-29T20:41:23.564Z,96.69
2023-01-29T20:43:50.933Z,96.67
2023-01-29T20:46:18.144Z,96.57
2023-01-29T20:48:44.591Z,96.55
2023-01-29T20:51:15.332Z,97.34
2023-01-29T20:53:45.526Z,97.33
2023-01-29T20:56:13.454Z,97.07
2023-01-29T20:58:43.543Z,97.46
2023-01-29T21:01:16.491Z,97.67
2023-01-29T21:03:43.317Z,97.81
2023-01-29T21:06:11.416Z,98.20
2023-01-29T21:08:38.868Z,98.00
2023-01-29T21:11:06.838Z,98.33
2023-01-29T21:13:33.731Z,98.71
2023-01-29T21:16:00.348Z,98.88
2023-01-29T21:18:26.785Z,98.66
2023-01-29T21:20:53.977Z,98.66
2023-01-29T21:23:20.946Z,98.64
2023-01-29T21:25:48.060Z,99.22
2023-01-29T21:28:15.893Z,99.70
2023-01-29T21:30:42.503Z,99.78
2023-01-29T21:33:09.154Z,99.84
2023-01-29T21:35:37.776Z,100.00
2023-01-29T21:38:07.636Z,100.00
2023-01-29T21:40:34.176Z,100.00
2023-01-29T21:43:13.803Z,100.00
2023-01-29T21:45:40.870Z,100.00
2023-01-29T21:48:09.011Z,100.00
2023-01-29T21:50:36.239Z,100.00
2023-01-29T21:53:03.117Z,100.00
2023-01-29T21:55:30.764Z,100.00
2023-01-29T21:57:57.512Z,100.00
2023-01-29T22:00:24.104Z,100.00
2023-01-29T22:02:56.276Z,100.00
2023-01-29T22:05:24.043Z,100.00
2023-01-29T22:07:51.205Z,100.00
2023-01-29T22:10:21.793Z,100.00
2023-01-29T22:12:48.454Z,100.00
2023-01-29T22:15:17.971Z,100.00
2023-01-29T22:17:44.533Z,100.00
2023-01-29T22:20:16.550Z,100.00
2023-01-29T22:22:43.428Z,100.00
2023-01-29T22:25:15.673Z,100.00
2023-01-29T22:27:42.106Z,100.00
2023-01-29T22:30:09.306Z,100.00
2023-01-29T22:32:35.861Z,100.00
2023-01-29T22:35:02.295Z,100.00
2023-01-29T22:37:30.206Z,100.00
2023-01-29T22:39:56.613Z,100.00
2023-01-29T22:42:23.110Z,100.00
2023-01-29T22:44:50.191Z,100.00
2023-01-29T22:47:16.695Z,100.00
2023-01-29T22:49:45.538Z,100.00
2023-01-29T22:52:12.348Z,100.00
2023-01-29T22:54:40.957Z,100.00
2023-01-29T22:57:10.457Z,100.00
2023-01-29T22:59:37.411Z,100.00
2023-01-29T23:02:04.556Z,100.00
2023-01-29T23:04:31.167Z,100.00
2023-01-29T23:06:57.689Z,100.00
2023-01-29T23:09:24.357Z,100.00
2023-01-29T23:11:50.993Z,100.00
2023-01-29T23:14:17.602Z,100.00
2023-01-29T23:16:44.139Z,100.00
2023-01-29T23:19:12.092Z,100.00
2023-01-29T23:21:39.522Z,100.00
2023-01-29T23:24:07.315Z,100.00
2023-01-29T23:26:52.867Z,100.00
2023-01-29T23:29:20.648Z,100.00
2023-01-29T23:31:47.324Z,100.00
2023-01-29T23:34:14.269Z,100.00
2023-01-29T23:36:41.116Z,100.00
2023-01-29T23:39:07.896Z,100.00
2023-01-29T23:41:34.459Z,100.00
2023-01-29T23:44:00.989Z,100.00
2023-01-29T23:46:27.556Z,100.00
2023-01-29T23:48:54.161Z,100.00
2023-01-29T23:51:20.604Z,100.00
2023-01-29T23:53:47.075Z,100.00
2023-01-29T23:56:13.706Z,100.00
2023-01-29T23:58:40.332Z,100.00
